sensor_id;sensor_type;location;lat;lon;timestamp;P1;durP1;ratioP1;P2;durP2;ratioP2
47784;SDS011;35233;55.686;37.848;2023-04-02T00:01:03;6.18;;;4.30;;
47784;SDS011;35233;55.686;37.848;2023-04-02T00:06:54;5.82;;;3.95;;
47784;SDS011;35233;55.686;37.848;2023-04-02T00:11:38;6.78;;;4.20;;
47784;SDS011;35233;55.686;37.848;2023-04-02T00:19:24;5.68;;;4.15;;
47784;SDS011;35233;55.686;37.848;2023-04-02T00:21:52;5.35;;;3.67;;
47784;SDS011;35233;55.686;37.848;2023-04-02T00:24:19;5.25;;;3.80;;
47784;SDS011;35233;55.686;37.848;2023-04-02T00:26:47;5.82;;;4.10;;
47784;SDS011;35233;55.686;37.848;2023-04-02T00:29:14;6.30;;;4.03;;
47784;SDS011;35233;55.686;37.848;2023-04-02T00:31:41;5.25;;;3.95;;
47784;SDS011;35233;55.686;37.848;2023-04-02T00:34:13;5.97;;;4.05;;
47784;SDS011;35233;55.686;37.848;2023-04-02T00:36:42;5.80;;;3.90;;
47784;SDS011;35233;55.686;37.848;2023-04-02T00:39:09;5.68;;;4.07;;
47784;SDS011;35233;55.686;37.848;2023-04-02T00:41:42;5.47;;;3.97;;
47784;SDS011;35233;55.686;37.848;2023-04-02T00:44:11;4.88;;;3.95;;
47784;SDS011;35233;55.686;37.848;2023-04-02T00:46:41;5.65;;;3.72;;
47784;SDS011;35233;55.686;37.848;2023-04-02T00:49:24;5.47;;;3.90;;
47784;SDS011;35233;55.686;37.848;2023-04-02T00:51:58;5.30;;;3.83;;
47784;SDS011;35233;55.686;37.848;2023-04-02T00:54:28;5.68;;;3.75;;
47784;SDS011;35233;55.686;37.848;2023-04-02T00:56:57;5.63;;;3.90;;
47784;SDS011;35233;55.686;37.848;2023-04-02T00:59:31;6.43;;;3.92;;
47784;SDS011;35233;55.686;37.848;2023-04-02T01:02:18;6.25;;;4.35;;
47784;SDS011;35233;55.686;37.848;2023-04-02T01:04:51;5.18;;;3.90;;
47784;SDS011;35233;55.686;37.848;2023-04-02T01:07:32;6.07;;;3.70;;
47784;SDS011;35233;55.686;37.848;2023-04-02T01:10:52;5.75;;;3.95;;
47784;SDS011;35233;55.686;37.848;2023-04-02T01:15:50;5.10;;;3.90;;
47784;SDS011;35233;55.686;37.848;2023-04-02T01:22:21;5.63;;;3.83;;
47784;SDS011;35233;55.686;37.848;2023-04-02T01:24:29;7.28;;;3.83;;
47784;SDS011;35233;55.686;37.848;2023-04-02T01:26:58;5.07;;;3.65;;
47784;SDS011;35233;55.686;37.848;2023-04-02T01:29:59;5.78;;;4.05;;
47784;SDS011;35233;55.686;37.848;2023-04-02T01:32:21;5.87;;;3.77;;
47784;SDS011;35233;55.686;37.848;2023-04-02T01:34:49;4.85;;;3.70;;
47784;SDS011;35233;55.686;37.848;2023-04-02T01:44:58;6.32;;;3.80;;
47784;SDS011;35233;55.686;37.848;2023-04-02T01:47:27;5.18;;;3.65;;
47784;SDS011;35233;55.686;37.848;2023-04-02T01:49:56;5.20;;;3.70;;
47784;SDS011;35233;55.686;37.848;2023-04-02T01:52:35;5.53;;;3.95;;
47784;SDS011;35233;55.686;37.848;2023-04-02T01:55:05;6.15;;;4.03;;
47784;SDS011;35233;55.686;37.848;2023-04-02T01:57:37;5.72;;;4.03;;
47784;SDS011;35233;55.686;37.848;2023-04-02T02:00:10;5.32;;;3.53;;
47784;SDS011;35233;55.686;37.848;2023-04-02T02:02:39;6.25;;;3.90;;
47784;SDS011;35233;55.686;37.848;2023-04-02T02:05:11;5.68;;;3.90;;
47784;SDS011;35233;55.686;37.848;2023-04-02T02:07:38;5.68;;;3.90;;
47784;SDS011;35233;55.686;37.848;2023-04-02T02:10:05;6.00;;;4.20;;
47784;SDS011;35233;55.686;37.848;2023-04-02T02:12:39;5.23;;;3.73;;
47784;SDS011;35233;55.686;37.848;2023-04-02T02:15:11;5.60;;;4.00;;
47784;SDS011;35233;55.686;37.848;2023-04-02T02:17:43;4.60;;;3.58;;
47784;SDS011;35233;55.686;37.848;2023-04-02T02:20:09;5.30;;;3.63;;
47784;SDS011;35233;55.686;37.848;2023-04-02T02:22:37;5.25;;;3.78;;
47784;SDS011;35233;55.686;37.848;2023-04-02T02:25:14;4.97;;;3.60;;
47784;SDS011;35233;55.686;37.848;2023-04-02T02:27:47;5.95;;;3.80;;
47784;SDS011;35233;55.686;37.848;2023-04-02T02:30:23;4.95;;;3.88;;
47784;SDS011;35233;55.686;37.848;2023-04-02T02:38:36;5.05;;;3.75;;
47784;SDS011;35233;55.686;37.848;2023-04-02T02:43:49;5.20;;;3.60;;
47784;SDS011;35233;55.686;37.848;2023-04-02T02:46:20;5.03;;;3.58;;
47784;SDS011;35233;55.686;37.848;2023-04-02T02:48:47;6.05;;;3.97;;
47784;SDS011;35233;55.686;37.848;2023-04-02T02:51:38;5.30;;;3.80;;
47784;SDS011;35233;55.686;37.848;2023-04-02T02:54:28;4.45;;;3.30;;
47784;SDS011;35233;55.686;37.848;2023-04-02T02:56:58;5.38;;;3.72;;
47784;SDS011;35233;55.686;37.848;2023-04-02T02:59:28;5.53;;;3.30;;
47784;SDS011;35233;55.686;37.848;2023-04-02T03:01:54;4.90;;;3.60;;
47784;SDS011;35233;55.686;37.848;2023-04-02T03:04:21;5.00;;;3.42;;
47784;SDS011;35233;55.686;37.848;2023-04-02T03:06:51;5.38;;;3.60;;
47784;SDS011;35233;55.686;37.848;2023-04-02T03:09:30;5.43;;;3.60;;
47784;SDS011;35233;55.686;37.848;2023-04-02T03:23:46;6.28;;;3.97;;
47784;SDS011;35233;55.686;37.848;2023-04-02T03:27:19;4.90;;;3.65;;
47784;SDS011;35233;55.686;37.848;2023-04-02T03:29:29;4.72;;;3.22;;
47784;SDS011;35233;55.686;37.848;2023-04-02T03:34:43;4.88;;;3.70;;
47784;SDS011;35233;55.686;37.848;2023-04-02T03:37:17;5.25;;;3.50;;
47784;SDS011;35233;55.686;37.848;2023-04-02T03:39:52;4.75;;;3.75;;
47784;SDS011;35233;55.686;37.848;2023-04-02T03:42:25;4.70;;;3.42;;
47784;SDS011;35233;55.686;37.848;2023-04-02T03:49:55;4.32;;;3.05;;
47784;SDS011;35233;55.686;37.848;2023-04-02T03:52:25;6.13;;;3.70;;
47784;SDS011;35233;55.686;37.848;2023-04-02T03:54:53;4.65;;;3.17;;
47784;SDS011;35233;55.686;37.848;2023-04-02T04:00:01;5.03;;;3.33;;
47784;SDS011;35233;55.686;37.848;2023-04-02T04:02:42;4.35;;;3.20;;
47784;SDS011;35233;55.686;37.848;2023-04-02T04:05:22;4.30;;;3.20;;
47784;SDS011;35233;55.686;37.848;2023-04-02T04:07:52;5.15;;;3.58;;
47784;SDS011;35233;55.686;37.848;2023-04-02T04:10:24;4.90;;;3.30;;
47784;SDS011;35233;55.686;37.848;2023-04-02T04:12:52;4.82;;;3.40;;
47784;SDS011;35233;55.686;37.848;2023-04-02T04:26:01;4.32;;;2.85;;
47784;SDS011;35233;55.686;37.848;2023-04-02T04:28:55;4.47;;;3.30;;
47784;SDS011;35233;55.686;37.848;2023-04-02T04:31:37;4.95;;;3.20;;
47784;SDS011;35233;55.686;37.848;2023-04-02T04:34:12;4.45;;;3.45;;
47784;SDS011;35233;55.686;37.848;2023-04-02T04:36:44;4.80;;;3.10;;
47784;SDS011;35233;55.686;37.848;2023-04-02T04:39:23;4.63;;;3.45;;
47784;SDS011;35233;55.686;37.848;2023-04-02T04:42:07;4.70;;;3.33;;
47784;SDS011;35233;55.686;37.848;2023-04-02T04:44:45;4.35;;;3.03;;
47784;SDS011;35233;55.686;37.848;2023-04-02T04:47:17;4.25;;;2.85;;
47784;SDS011;35233;55.686;37.848;2023-04-02T04:49:56;4.03;;;2.88;;
47784;SDS011;35233;55.686;37.848;2023-04-02T04:52:37;4.07;;;3.00;;
47784;SDS011;35233;55.686;37.848;2023-04-02T04:58:10;4.45;;;3.17;;
47784;SDS011;35233;55.686;37.848;2023-04-02T05:05:50;4.32;;;3.15;;
47784;SDS011;35233;55.686;37.848;2023-04-02T05:08:21;4.07;;;2.92;;
47784;SDS011;35233;55.686;37.848;2023-04-02T05:10:54;4.72;;;3.13;;
47784;SDS011;35233;55.686;37.848;2023-04-02T05:18:54;4.80;;;3.20;;
47784;SDS011;35233;55.686;37.848;2023-04-02T05:26:44;3.70;;;3.00;;
47784;SDS011;35233;55.686;37.848;2023-04-02T05:29:19;4.35;;;3.15;;
47784;SDS011;35233;55.686;37.848;2023-04-02T05:31:52;5.10;;;3.30;;
47784;SDS011;35233;55.686;37.848;2023-04-02T05:34:29;4.32;;;3.28;;
47784;SDS011;35233;55.686;37.848;2023-04-02T05:36:59;5.07;;;3.58;;
47784;SDS011;35233;55.686;37.848;2023-04-02T05:39:26;4.97;;;3.35;;
47784;SDS011;35233;55.686;37.848;2023-04-02T05:42:05;4.13;;;2.95;;
47784;SDS011;35233;55.686;37.848;2023-04-02T05:44:38;4.40;;;3.05;;
47784;SDS011;35233;55.686;37.848;2023-04-02T05:47:23;4.72;;;2.97;;
47784;SDS011;35233;55.686;37.848;2023-04-02T05:50:05;4.75;;;3.67;;
47784;SDS011;35233;55.686;37.848;2023-04-02T05:52:56;4.45;;;3.35;;
47784;SDS011;35233;55.686;37.848;2023-04-02T05:55:35;5.45;;;3.40;;
47784;SDS011;35233;55.686;37.848;2023-04-02T06:01:00;4.68;;;3.55;;
47784;SDS011;35233;55.686;37.848;2023-04-02T06:03:30;5.18;;;3.60;;
47784;SDS011;35233;55.686;37.848;2023-04-02T06:06:18;4.13;;;3.10;;
47784;SDS011;35233;55.686;37.848;2023-04-02T06:08:54;5.53;;;3.20;;
47784;SDS011;35233;55.686;37.848;2023-04-02T06:11:29;4.50;;;3.42;;
47784;SDS011;35233;55.686;37.848;2023-04-02T06:13:57;4.40;;;3.00;;
47784;SDS011;35233;55.686;37.848;2023-04-02T06:16:24;4.65;;;3.40;;
47784;SDS011;35233;55.686;37.848;2023-04-02T06:18:52;5.22;;;3.45;;
47784;SDS011;35233;55.686;37.848;2023-04-02T06:21:19;4.82;;;3.42;;
47784;SDS011;35233;55.686;37.848;2023-04-02T06:24:02;5.10;;;3.22;;
47784;SDS011;35233;55.686;37.848;2023-04-02T06:26:41;5.05;;;3.40;;
47784;SDS011;35233;55.686;37.848;2023-04-02T06:34:18;5.55;;;3.20;;
47784;SDS011;35233;55.686;37.848;2023-04-02T06:36:46;4.82;;;3.30;;
47784;SDS011;35233;55.686;37.848;2023-04-02T06:39:20;4.63;;;3.47;;
47784;SDS011;35233;55.686;37.848;2023-04-02T06:42:09;4.40;;;2.97;;
47784;SDS011;35233;55.686;37.848;2023-04-02T06:44:36;4.80;;;3.42;;
47784;SDS011;35233;55.686;37.848;2023-04-02T06:49:29;4.68;;;3.35;;
47784;SDS011;35233;55.686;37.848;2023-04-02T06:51:57;5.15;;;3.50;;
47784;SDS011;35233;55.686;37.848;2023-04-02T06:54:25;4.53;;;3.30;;
47784;SDS011;35233;55.686;37.848;2023-04-02T06:56:52;4.93;;;3.58;;
47784;SDS011;35233;55.686;37.848;2023-04-02T06:59:20;4.22;;;3.10;;
47784;SDS011;35233;55.686;37.848;2023-04-02T07:01:56;4.22;;;3.15;;
47784;SDS011;35233;55.686;37.848;2023-04-02T07:04:26;6.00;;;3.28;;
47784;SDS011;35233;55.686;37.848;2023-04-02T07:06:52;5.00;;;3.40;;
47784;SDS011;35233;55.686;37.848;2023-04-02T07:09:17;4.35;;;3.25;;
47784;SDS011;35233;55.686;37.848;2023-04-02T07:11:43;3.92;;;3.13;;
47784;SDS011;35233;55.686;37.848;2023-04-02T07:14:12;4.07;;;3.13;;
47784;SDS011;35233;55.686;37.848;2023-04-02T07:16:38;4.25;;;3.20;;
47784;SDS011;35233;55.686;37.848;2023-04-02T07:19:05;4.75;;;3.10;;
47784;SDS011;35233;55.686;37.848;2023-04-02T07:21:31;4.38;;;3.38;;
47784;SDS011;35233;55.686;37.848;2023-04-02T07:23:56;3.75;;;2.83;;
47784;SDS011;35233;55.686;37.848;2023-04-02T07:26:23;4.35;;;3.00;;
47784;SDS011;35233;55.686;37.848;2023-04-02T07:28:51;4.30;;;3.20;;
47784;SDS011;35233;55.686;37.848;2023-04-02T07:31:22;4.20;;;3.08;;
47784;SDS011;35233;55.686;37.848;2023-04-02T07:33:50;4.10;;;3.10;;
47784;SDS011;35233;55.686;37.848;2023-04-02T07:36:17;4.88;;;3.20;;
47784;SDS011;35233;55.686;37.848;2023-04-02T07:38:45;4.70;;;3.30;;
47784;SDS011;35233;55.686;37.848;2023-04-02T07:41:11;4.10;;;3.15;;
47784;SDS011;35233;55.686;37.848;2023-04-02T07:43:38;4.45;;;3.35;;
47784;SDS011;35233;55.686;37.848;2023-04-02T07:46:05;4.45;;;3.05;;
47784;SDS011;35233;55.686;37.848;2023-04-02T07:48:31;4.13;;;2.90;;
47784;SDS011;35233;55.686;37.848;2023-04-02T07:50:57;4.90;;;3.47;;
47784;SDS011;35233;55.686;37.848;2023-04-02T07:53:27;3.70;;;2.80;;
47784;SDS011;35233;55.686;37.848;2023-04-02T07:56:02;4.05;;;3.15;;
47784;SDS011;35233;55.686;37.848;2023-04-02T07:58:28;4.47;;;3.33;;
47784;SDS011;35233;55.686;37.848;2023-04-02T08:00:55;4.30;;;3.13;;
47784;SDS011;35233;55.686;37.848;2023-04-02T08:03:21;4.28;;;2.95;;
47784;SDS011;35233;55.686;37.848;2023-04-02T08:05:53;4.10;;;3.15;;
47784;SDS011;35233;55.686;37.848;2023-04-02T08:08:21;3.70;;;2.87;;
47784;SDS011;35233;55.686;37.848;2023-04-02T08:10:48;3.92;;;2.92;;
47784;SDS011;35233;55.686;37.848;2023-04-02T08:13:15;5.10;;;3.38;;
47784;SDS011;35233;55.686;37.848;2023-04-02T08:15:42;4.70;;;2.95;;
47784;SDS011;35233;55.686;37.848;2023-04-02T08:18:08;4.45;;;3.10;;
47784;SDS011;35233;55.686;37.848;2023-04-02T08:20:33;4.18;;;2.70;;
47784;SDS011;35233;55.686;37.848;2023-04-02T08:22:59;7.18;;;3.55;;
47784;SDS011;35233;55.686;37.848;2023-04-02T08:25:25;4.43;;;3.15;;
47784;SDS011;35233;55.686;37.848;2023-04-02T08:27:51;3.95;;;2.97;;
47784;SDS011;35233;55.686;37.848;2023-04-02T08:30:17;3.70;;;2.83;;
47784;SDS011;35233;55.686;37.848;2023-04-02T08:32:43;4.15;;;3.03;;
47784;SDS011;35233;55.686;37.848;2023-04-02T08:35:11;4.50;;;3.00;;
47784;SDS011;35233;55.686;37.848;2023-04-02T08:37:38;4.55;;;3.35;;
47784;SDS011;35233;55.686;37.848;2023-04-02T08:40:05;3.92;;;2.83;;
47784;SDS011;35233;55.686;37.848;2023-04-02T08:45:18;4.97;;;3.30;;
47784;SDS011;35233;55.686;37.848;2023-04-02T08:47:50;4.25;;;3.17;;
47784;SDS011;35233;55.686;37.848;2023-04-02T08:50:27;4.30;;;3.30;;
47784;SDS011;35233;55.686;37.848;2023-04-02T08:52:57;4.57;;;3.20;;
47784;SDS011;35233;55.686;37.848;2023-04-02T08:58:15;4.53;;;3.05;;
47784;SDS011;35233;55.686;37.848;2023-04-02T09:01:02;4.75;;;3.20;;
47784;SDS011;35233;55.686;37.848;2023-04-02T09:03:31;4.30;;;3.10;;
47784;SDS011;35233;55.686;37.848;2023-04-02T09:06:01;3.63;;;2.60;;
47784;SDS011;35233;55.686;37.848;2023-04-02T09:08:28;4.63;;;3.15;;
47784;SDS011;35233;55.686;37.848;2023-04-02T09:11:07;3.88;;;2.75;;
47784;SDS011;35233;55.686;37.848;2023-04-02T09:13:36;3.90;;;2.83;;
47784;SDS011;35233;55.686;37.848;2023-04-02T09:16:10;4.53;;;2.85;;
47784;SDS011;35233;55.686;37.848;2023-04-02T09:18:42;4.25;;;3.08;;
47784;SDS011;35233;55.686;37.848;2023-04-02T09:21:16;4.72;;;3.25;;
47784;SDS011;35233;55.686;37.848;2023-04-02T09:23:43;4.35;;;2.95;;
47784;SDS011;35233;55.686;37.848;2023-04-02T09:31:41;4.00;;;3.03;;
47784;SDS011;35233;55.686;37.848;2023-04-02T09:34:25;4.13;;;2.95;;
47784;SDS011;35233;55.686;37.848;2023-04-02T09:36:52;4.00;;;3.03;;
47784;SDS011;35233;55.686;37.848;2023-04-02T09:39:19;4.03;;;3.20;;
47784;SDS011;35233;55.686;37.848;2023-04-02T09:41:47;4.40;;;3.08;;
47784;SDS011;35233;55.686;37.848;2023-04-02T09:46:54;4.95;;;3.10;;
47784;SDS011;35233;55.686;37.848;2023-04-02T09:49:26;3.70;;;2.70;;
47784;SDS011;35233;55.686;37.848;2023-04-02T09:52:30;3.35;;;2.72;;
47784;SDS011;35233;55.686;37.848;2023-04-02T09:58:04;4.20;;;3.03;;
47784;SDS011;35233;55.686;37.848;2023-04-02T10:00:50;4.07;;;2.88;;
47784;SDS011;35233;55.686;37.848;2023-04-02T10:08:32;4.22;;;3.20;;
47784;SDS011;35233;55.686;37.848;2023-04-02T10:10:58;4.82;;;3.10;;
47784;SDS011;35233;55.686;37.848;2023-04-02T10:13:30;4.80;;;3.08;;
47784;SDS011;35233;55.686;37.848;2023-04-02T10:18:48;3.72;;;2.85;;
47784;SDS011;35233;55.686;37.848;2023-04-02T10:21:20;4.13;;;3.05;;
47784;SDS011;35233;55.686;37.848;2023-04-02T10:23:49;4.82;;;3.00;;
47784;SDS011;35233;55.686;37.848;2023-04-02T10:31:11;3.53;;;2.75;;
47784;SDS011;35233;55.686;37.848;2023-04-02T10:33:42;3.90;;;2.90;;
47784;SDS011;35233;55.686;37.848;2023-04-02T10:44:19;3.83;;;2.80;;
47784;SDS011;35233;55.686;37.848;2023-04-02T10:46:57;3.95;;;2.75;;
47784;SDS011;35233;55.686;37.848;2023-04-02T10:52:28;4.15;;;2.85;;
47784;SDS011;35233;55.686;37.848;2023-04-02T10:54:59;3.53;;;2.70;;
47784;SDS011;35233;55.686;37.848;2023-04-02T10:57:35;4.30;;;3.15;;
47784;SDS011;35233;55.686;37.848;2023-04-02T11:05:39;3.67;;;2.53;;
47784;SDS011;35233;55.686;37.848;2023-04-02T11:08:18;3.58;;;2.78;;
47784;SDS011;35233;55.686;37.848;2023-04-02T11:10:58;3.92;;;3.00;;
47784;SDS011;35233;55.686;37.848;2023-04-02T11:13:27;3.88;;;2.88;;
47784;SDS011;35233;55.686;37.848;2023-04-02T11:16:00;3.60;;;2.67;;
47784;SDS011;35233;55.686;37.848;2023-04-02T11:18:28;3.13;;;2.42;;
47784;SDS011;35233;55.686;37.848;2023-04-02T11:23:58;3.28;;;2.47;;
47784;SDS011;35233;55.686;37.848;2023-04-02T11:26:32;3.63;;;2.88;;
47784;SDS011;35233;55.686;37.848;2023-04-02T11:29:04;3.88;;;2.97;;
47784;SDS011;35233;55.686;37.848;2023-04-02T11:31:49;3.47;;;2.67;;
47784;SDS011;35233;55.686;37.848;2023-04-02T11:37:56;3.60;;;2.90;;
47784;SDS011;35233;55.686;37.848;2023-04-02T11:50:30;4.00;;;3.15;;
47784;SDS011;35233;55.686;37.848;2023-04-02T11:55:35;3.95;;;2.90;;
47784;SDS011;35233;55.686;37.848;2023-04-02T12:06:11;3.80;;;2.70;;
47784;SDS011;35233;55.686;37.848;2023-04-02T12:11:49;4.05;;;2.60;;
47784;SDS011;35233;55.686;37.848;2023-04-02T12:17:16;4.55;;;3.10;;
47784;SDS011;35233;55.686;37.848;2023-04-02T12:19:59;3.75;;;2.90;;
47784;SDS011;35233;55.686;37.848;2023-04-02T12:22:38;4.68;;;2.95;;
47784;SDS011;35233;55.686;37.848;2023-04-02T12:25:24;3.60;;;2.80;;
47784;SDS011;35233;55.686;37.848;2023-04-02T12:30:33;4.10;;;2.80;;
47784;SDS011;35233;55.686;37.848;2023-04-02T12:33:15;4.55;;;3.30;;
47784;SDS011;35233;55.686;37.848;2023-04-02T12:35:53;3.80;;;2.63;;
47784;SDS011;35233;55.686;37.848;2023-04-02T12:38:29;4.30;;;2.78;;
47784;SDS011;35233;55.686;37.848;2023-04-02T12:41:01;4.00;;;2.78;;
47784;SDS011;35233;55.686;37.848;2023-04-02T12:43:30;4.43;;;3.15;;
47784;SDS011;35233;55.686;37.848;2023-04-02T12:45:58;3.67;;;2.78;;
47784;SDS011;35233;55.686;37.848;2023-04-02T12:48:32;3.85;;;2.88;;
47784;SDS011;35233;55.686;37.848;2023-04-02T12:50:59;3.75;;;2.85;;
47784;SDS011;35233;55.686;37.848;2023-04-02T12:53:36;4.07;;;3.00;;
47784;SDS011;35233;55.686;37.848;2023-04-02T12:56:04;4.05;;;3.08;;
47784;SDS011;35233;55.686;37.848;2023-04-02T13:01:25;5.18;;;3.35;;
47784;SDS011;35233;55.686;37.848;2023-04-02T13:04:00;3.90;;;2.80;;
47784;SDS011;35233;55.686;37.848;2023-04-02T13:06:28;3.30;;;2.70;;
47784;SDS011;35233;55.686;37.848;2023-04-02T13:08:57;3.70;;;2.80;;
47784;SDS011;35233;55.686;37.848;2023-04-02T13:11:39;4.22;;;2.83;;
47784;SDS011;35233;55.686;37.848;2023-04-02T13:14:06;3.00;;;2.50;;
47784;SDS011;35233;55.686;37.848;2023-04-02T13:16:41;4.90;;;3.20;;
47784;SDS011;35233;55.686;37.848;2023-04-02T13:21:35;4.07;;;2.97;;
47784;SDS011;35233;55.686;37.848;2023-04-02T13:24:01;4.18;;;2.90;;
47784;SDS011;35233;55.686;37.848;2023-04-02T13:26:27;3.53;;;2.67;;
47784;SDS011;35233;55.686;37.848;2023-04-02T13:28:57;3.63;;;2.70;;
47784;SDS011;35233;55.686;37.848;2023-04-02T13:31:24;3.75;;;2.63;;
47784;SDS011;35233;55.686;37.848;2023-04-02T13:33:50;4.60;;;2.95;;
47784;SDS011;35233;55.686;37.848;2023-04-02T13:36:16;3.90;;;3.00;;
47784;SDS011;35233;55.686;37.848;2023-04-02T13:38:42;3.30;;;2.60;;
47784;SDS011;35233;55.686;37.848;2023-04-02T13:43:50;3.55;;;2.58;;
47784;SDS011;35233;55.686;37.848;2023-04-02T13:46:21;4.30;;;2.80;;
47784;SDS011;35233;55.686;37.848;2023-04-02T13:48:48;3.63;;;2.75;;
47784;SDS011;35233;55.686;37.848;2023-04-02T13:51:16;3.35;;;2.65;;
47784;SDS011;35233;55.686;37.848;2023-04-02T13:53:43;3.80;;;2.97;;
47784;SDS011;35233;55.686;37.848;2023-04-02T13:56:11;6.22;;;2.90;;
47784;SDS011;35233;55.686;37.848;2023-04-02T13:58:36;3.85;;;2.80;;
47784;SDS011;35233;55.686;37.848;2023-04-02T14:01:02;4.30;;;2.88;;
47784;SDS011;35233;55.686;37.848;2023-04-02T14:03:27;3.58;;;2.53;;
47784;SDS011;35233;55.686;37.848;2023-04-02T14:08:53;4.10;;;2.90;;
47784;SDS011;35233;55.686;37.848;2023-04-02T14:22:12;3.55;;;2.35;;
47784;SDS011;35233;55.686;37.848;2023-04-02T14:24:46;4.72;;;2.75;;
47784;SDS011;35233;55.686;37.848;2023-04-02T14:30:26;3.20;;;2.50;;
47784;SDS011;35233;55.686;37.848;2023-04-02T14:35:41;4.65;;;2.90;;
47784;SDS011;35233;55.686;37.848;2023-04-02T14:38:28;3.42;;;2.53;;
47784;SDS011;35233;55.686;37.848;2023-04-02T14:43:57;4.05;;;2.75;;
47784;SDS011;35233;55.686;37.848;2023-04-02T14:46:26;3.60;;;2.58;;
47784;SDS011;35233;55.686;37.848;2023-04-02T14:54:37;3.60;;;2.80;;
47784;SDS011;35233;55.686;37.848;2023-04-02T14:57:28;3.20;;;2.63;;
47784;SDS011;35233;55.686;37.848;2023-04-02T15:02:50;3.30;;;2.30;;
47784;SDS011;35233;55.686;37.848;2023-04-02T15:08:04;4.20;;;2.83;;
47784;SDS011;35233;55.686;37.848;2023-04-02T15:13:03;3.60;;;2.60;;
47784;SDS011;35233;55.686;37.848;2023-04-02T15:15:47;3.55;;;2.60;;
47784;SDS011;35233;55.686;37.848;2023-04-02T15:18:20;2.88;;;2.38;;
47784;SDS011;35233;55.686;37.848;2023-04-02T15:20:49;4.30;;;2.80;;
47784;SDS011;35233;55.686;37.848;2023-04-02T15:27:10;3.65;;;2.55;;
47784;SDS011;35233;55.686;37.848;2023-04-02T15:32:06;5.15;;;2.90;;
47784;SDS011;35233;55.686;37.848;2023-04-02T15:34:47;2.85;;;2.50;;
47784;SDS011;35233;55.686;37.848;2023-04-02T15:40:25;4.07;;;2.63;;
47784;SDS011;35233;55.686;37.848;2023-04-02T15:46:15;3.67;;;2.65;;
47784;SDS011;35233;55.686;37.848;2023-04-02T15:49:00;4.40;;;3.10;;
47784;SDS011;35233;55.686;37.848;2023-04-02T15:51:35;3.75;;;2.55;;
47784;SDS011;35233;55.686;37.848;2023-04-02T16:10:56;4.15;;;2.60;;
47784;SDS011;35233;55.686;37.848;2023-04-02T16:15:51;3.90;;;2.80;;
47784;SDS011;35233;55.686;37.848;2023-04-02T16:21:07;2.95;;;2.35;;
47784;SDS011;35233;55.686;37.848;2023-04-02T16:23:38;3.95;;;2.60;;
47784;SDS011;35233;55.686;37.848;2023-04-02T16:29:01;4.13;;;2.55;;
47784;SDS011;35233;55.686;37.848;2023-04-02T16:36:47;3.70;;;2.60;;
47784;SDS011;35233;55.686;37.848;2023-04-02T16:50:50;3.45;;;2.60;;
47784;SDS011;35233;55.686;37.848;2023-04-02T16:53:46;3.55;;;2.42;;
47784;SDS011;35233;55.686;37.848;2023-04-02T17:02:00;3.95;;;2.50;;
47784;SDS011;35233;55.686;37.848;2023-04-02T17:07:31;3.20;;;2.38;;
47784;SDS011;35233;55.686;37.848;2023-04-02T17:12:38;3.78;;;2.58;;
47784;SDS011;35233;55.686;37.848;2023-04-02T17:18:17;3.55;;;2.40;;
47784;SDS011;35233;55.686;37.848;2023-04-02T17:20:45;3.75;;;2.65;;
47784;SDS011;35233;55.686;37.848;2023-04-02T17:23:12;3.50;;;2.50;;
47784;SDS011;35233;55.686;37.848;2023-04-02T17:25:47;4.10;;;2.80;;
47784;SDS011;35233;55.686;37.848;2023-04-02T17:28:32;3.30;;;2.60;;
47784;SDS011;35233;55.686;37.848;2023-04-02T17:31:12;3.60;;;2.45;;
47784;SDS011;35233;55.686;37.848;2023-04-02T17:33:49;3.78;;;2.40;;
47784;SDS011;35233;55.686;37.848;2023-04-02T17:44:42;2.95;;;2.40;;
47784;SDS011;35233;55.686;37.848;2023-04-02T17:47:21;3.55;;;2.45;;
47784;SDS011;35233;55.686;37.848;2023-04-02T17:50:08;3.75;;;2.65;;
47784;SDS011;35233;55.686;37.848;2023-04-02T17:55:23;5.05;;;2.92;;
47784;SDS011;35233;55.686;37.848;2023-04-02T18:06:13;3.63;;;2.50;;
47784;SDS011;35233;55.686;37.848;2023-04-02T18:14:28;3.53;;;2.60;;
47784;SDS011;35233;55.686;37.848;2023-04-02T18:42:30;3.85;;;2.78;;
47784;SDS011;35233;55.686;37.848;2023-04-02T18:50:23;3.97;;;2.97;;
47784;SDS011;35233;55.686;37.848;2023-04-02T18:52:54;3.80;;;2.80;;
47784;SDS011;35233;55.686;37.848;2023-04-02T18:55:20;5.05;;;2.55;;
47784;SDS011;35233;55.686;37.848;2023-04-02T18:57:51;2.97;;;2.40;;
47784;SDS011;35233;55.686;37.848;2023-04-02T19:00:26;4.53;;;2.88;;
47784;SDS011;35233;55.686;37.848;2023-04-02T19:05:38;3.45;;;2.63;;
47784;SDS011;35233;55.686;37.848;2023-04-02T19:10:44;4.00;;;2.90;;
47784;SDS011;35233;55.686;37.848;2023-04-02T19:16:07;3.58;;;2.47;;
47784;SDS011;35233;55.686;37.848;2023-04-02T19:19:02;3.50;;;2.67;;
47784;SDS011;35233;55.686;37.848;2023-04-02T19:21:38;4.47;;;2.88;;
47784;SDS011;35233;55.686;37.848;2023-04-02T19:35:27;3.85;;;2.60;;
47784;SDS011;35233;55.686;37.848;2023-04-02T19:40:45;3.47;;;2.42;;
47784;SDS011;35233;55.686;37.848;2023-04-02T19:43:25;3.47;;;2.53;;
47784;SDS011;35233;55.686;37.848;2023-04-02T19:45:51;4.10;;;2.80;;
47784;SDS011;35233;55.686;37.848;2023-04-02T19:50:51;3.35;;;2.50;;
47784;SDS011;35233;55.686;37.848;2023-04-02T19:53:17;3.83;;;2.80;;
47784;SDS011;35233;55.686;37.848;2023-04-02T19:55:44;3.47;;;2.67;;
47784;SDS011;35233;55.686;37.848;2023-04-02T19:58:25;3.70;;;2.70;;
47784;SDS011;35233;55.686;37.848;2023-04-02T20:00:52;4.85;;;2.90;;
47784;SDS011;35233;55.686;37.848;2023-04-02T20:03:18;3.45;;;2.53;;
47784;SDS011;35233;55.686;37.848;2023-04-02T20:05:44;4.07;;;2.67;;
47784;SDS011;35233;55.686;37.848;2023-04-02T20:08:10;4.13;;;2.80;;
47784;SDS011;35233;55.686;37.848;2023-04-02T20:10:35;4.30;;;2.60;;
47784;SDS011;35233;55.686;37.848;2023-04-02T20:13:01;3.75;;;2.53;;
47784;SDS011;35233;55.686;37.848;2023-04-02T20:15:27;4.43;;;2.60;;
47784;SDS011;35233;55.686;37.848;2023-04-02T20:17:52;4.07;;;2.90;;
47784;SDS011;35233;55.686;37.848;2023-04-02T20:20:18;3.58;;;2.45;;
47784;SDS011;35233;55.686;37.848;2023-04-02T20:22:44;4.00;;;2.42;;
47784;SDS011;35233;55.686;37.848;2023-04-02T20:25:09;3.38;;;2.40;;
47784;SDS011;35233;55.686;37.848;2023-04-02T20:27:35;5.45;;;3.10;;
47784;SDS011;35233;55.686;37.848;2023-04-02T20:30:01;5.82;;;3.70;;
47784;SDS011;35233;55.686;37.848;2023-04-02T20:32:27;7.68;;;4.30;;
47784;SDS011;35233;55.686;37.848;2023-04-02T20:34:53;7.30;;;4.30;;
47784;SDS011;35233;55.686;37.848;2023-04-02T20:37:18;7.50;;;4.03;;
47784;SDS011;35233;55.686;37.848;2023-04-02T20:39:45;6.35;;;4.35;;
47784;SDS011;35233;55.686;37.848;2023-04-02T20:42:11;6.63;;;4.68;;
47784;SDS011;35233;55.686;37.848;2023-04-02T20:44:38;12.95;;;5.43;;
47784;SDS011;35233;55.686;37.848;2023-04-02T20:47:03;8.30;;;4.78;;
47784;SDS011;35233;55.686;37.848;2023-04-02T20:49:31;10.68;;;6.00;;
47784;SDS011;35233;55.686;37.848;2023-04-02T20:51:56;13.18;;;5.25;;
47784;SDS011;35233;55.686;37.848;2023-04-02T20:54:22;9.52;;;5.40;;
47784;SDS011;35233;55.686;37.848;2023-04-02T20:56:48;13.13;;;5.93;;
47784;SDS011;35233;55.686;37.848;2023-04-02T20:59:14;9.75;;;5.75;;
47784;SDS011;35233;55.686;37.848;2023-04-02T21:01:40;8.48;;;5.07;;
47784;SDS011;35233;55.686;37.848;2023-04-02T21:04:05;10.55;;;5.25;;
47784;SDS011;35233;55.686;37.848;2023-04-02T21:06:33;11.10;;;5.53;;
47784;SDS011;35233;55.686;37.848;2023-04-02T21:09:01;10.25;;;5.18;;
47784;SDS011;35233;55.686;37.848;2023-04-02T21:11:29;13.05;;;5.40;;